sensor_id;sensor_type;location;lat;lon;timestamp;P1;durP1;ratioP1;P2;durP2;ratioP2
11618;SDS011;5865;48.776;9.280;2023-01-24T00:10:16;12.80;;;9.17;;
11618;SDS011;5865;48.776;9.280;2023-01-24T00:12:43;13.73;;;9.70;;
11618;SDS011;5865;48.776;9.280;2023-01-24T00:15:10;12.67;;;9.27;;
11618;SDS011;5865;48.776;9.280;2023-01-24T00:17:37;13.67;;;9.20;;
11618;SDS011;5865;48.776;9.280;2023-01-24T00:20:05;12.17;;;8.90;;
11618;SDS011;5865;48.776;9.280;2023-01-24T00:22:32;12.83;;;9.20;;
11618;SDS011;5865;48.776;9.280;2023-01-24T00:24:59;12.70;;;8.73;;
11618;SDS011;5865;48.776;9.280;2023-01-24T00:27:27;10.97;;;8.27;;
11618;SDS011;5865;48.776;9.280;2023-01-24T00:29:56;12.60;;;9.27;;
11618;SDS011;5865;48.776;9.280;2023-01-24T00:32:23;13.50;;;9.07;;
11618;SDS011;5865;48.776;9.280;2023-01-24T00:34:50;12.83;;;9.10;;
11618;SDS011;5865;48.776;9.280;2023-01-24T00:37:17;11.20;;;8.30;;
11618;SDS011;5865;48.776;9.280;2023-01-24T00:39:44;12.23;;;8.70;;
11618;SDS011;5865;48.776;9.280;2023-01-24T00:42:11;12.30;;;8.93;;
11618;SDS011;5865;48.776;9.280;2023-01-24T00:44:39;10.97;;;8.53;;
11618;SDS011;5865;48.776;9.280;2023-01-24T00:47:07;13.63;;;9.10;;
11618;SDS011;5865;48.776;9.280;2023-01-24T00:49:36;12.43;;;9.40;;
11618;SDS011;5865;48.776;9.280;2023-01-24T00:52:03;13.57;;;9.20;;
11618;SDS011;5865;48.776;9.280;2023-01-24T00:54:30;12.13;;;8.80;;
11618;SDS011;5865;48.776;9.280;2023-01-24T00:56:57;13.43;;;9.17;;
11618;SDS011;5865;48.776;9.280;2023-01-24T00:59:24;13.20;;;9.27;;
11618;SDS011;5865;48.776;9.280;2023-01-24T01:01:53;11.33;;;8.23;;
11618;SDS011;5865;48.776;9.280;2023-01-24T01:04:20;13.17;;;8.80;;
11618;SDS011;5865;48.776;9.280;2023-01-24T01:06:47;12.57;;;8.80;;
11618;SDS011;5865;48.776;9.280;2023-01-24T01:09:14;12.17;;;8.97;;
11618;SDS011;5865;48.776;9.280;2023-01-24T01:11:41;13.00;;;8.83;;
11618;SDS011;5865;48.776;9.280;2023-01-24T01:14:09;14.03;;;9.50;;
11618;SDS011;5865;48.776;9.280;2023-01-24T01:16:36;11.50;;;8.63;;
11618;SDS011;5865;48.776;9.280;2023-01-24T01:19:04;13.33;;;8.97;;
11618;SDS011;5865;48.776;9.280;2023-01-24T01:21:32;14.23;;;9.30;;
11618;SDS011;5865;48.776;9.280;2023-01-24T01:23:59;14.07;;;8.97;;
11618;SDS011;5865;48.776;9.280;2023-01-24T01:26:26;13.27;;;8.97;;
11618;SDS011;5865;48.776;9.280;2023-01-24T01:28:53;12.53;;;9.43;;
11618;SDS011;5865;48.776;9.280;2023-01-24T01:31:20;14.27;;;9.90;;
11618;SDS011;5865;48.776;9.280;2023-01-24T01:33:47;13.37;;;9.20;;
11618;SDS011;5865;48.776;9.280;2023-01-24T01:36:15;12.80;;;9.47;;
11618;SDS011;5865;48.776;9.280;2023-01-24T01:38:42;12.57;;;9.20;;
11618;SDS011;5865;48.776;9.280;2023-01-24T01:41:10;12.93;;;9.00;;
11618;SDS011;5865;48.776;9.280;2023-01-24T01:43:38;13.33;;;9.50;;
11618;SDS011;5865;48.776;9.280;2023-01-24T01:46:25;12.93;;;9.67;;
11618;SDS011;5865;48.776;9.280;2023-01-24T01:48:54;12.73;;;9.10;;
11618;SDS011;5865;48.776;9.280;2023-01-24T01:51:29;14.83;;;9.83;;
11618;SDS011;5865;48.776;9.280;2023-01-24T01:53:59;13.70;;;9.77;;
11618;SDS011;5865;48.776;9.280;2023-01-24T01:56:31;13.23;;;9.50;;
11618;SDS011;5865;48.776;9.280;2023-01-24T01:59:02;13.27;;;9.27;;
11618;SDS011;5865;48.776;9.280;2023-01-24T02:01:33;15.07;;;10.63;;
11618;SDS011;5865;48.776;9.280;2023-01-24T02:04:02;14.27;;;9.90;;
11618;SDS011;5865;48.776;9.280;2023-01-24T02:06:40;13.23;;;9.63;;
11618;SDS011;5865;48.776;9.280;2023-01-24T02:09:14;12.40;;;9.33;;
11618;SDS011;5865;48.776;9.280;2023-01-24T02:11:44;12.33;;;8.90;;
11618;SDS011;5865;48.776;9.280;2023-01-24T02:14:11;13.33;;;8.93;;
11618;SDS011;5865;48.776;9.280;2023-01-24T02:17:00;12.83;;;9.23;;
11618;SDS011;5865;48.776;9.280;2023-01-24T02:22:19;14.90;;;9.40;;
11618;SDS011;5865;48.776;9.280;2023-01-24T02:24:52;12.13;;;9.03;;
11618;SDS011;5865;48.776;9.280;2023-01-24T02:27:28;14.73;;;9.60;;
11618;SDS011;5865;48.776;9.280;2023-01-24T02:29:56;14.83;;;10.40;;
11618;SDS011;5865;48.776;9.280;2023-01-24T02:32:24;13.53;;;8.90;;
11618;SDS011;5865;48.776;9.280;2023-01-24T02:34:51;15.03;;;10.23;;
11618;SDS011;5865;48.776;9.280;2023-01-24T02:37:22;13.97;;;9.57;;
11618;SDS011;5865;48.776;9.280;2023-01-24T02:39:52;14.40;;;9.53;;
11618;SDS011;5865;48.776;9.280;2023-01-24T02:42:24;13.13;;;9.57;;
11618;SDS011;5865;48.776;9.280;2023-01-24T02:45:02;15.00;;;9.80;;
11618;SDS011;5865;48.776;9.280;2023-01-24T02:47:31;16.37;;;10.03;;
11618;SDS011;5865;48.776;9.280;2023-01-24T02:50:03;13.37;;;8.90;;
11618;SDS011;5865;48.776;9.280;2023-01-24T02:52:32;14.27;;;9.80;;
11618;SDS011;5865;48.776;9.280;2023-01-24T02:55:16;14.57;;;9.80;;
11618;SDS011;5865;48.776;9.280;2023-01-24T02:57:43;14.33;;;9.83;;
11618;SDS011;5865;48.776;9.280;2023-01-24T03:00:29;14.07;;;9.60;;
11618;SDS011;5865;48.776;9.280;2023-01-24T03:02:58;15.23;;;10.23;;
11618;SDS011;5865;48.776;9.280;2023-01-24T03:05:25;13.53;;;9.40;;
11618;SDS011;5865;48.776;9.280;2023-01-24T03:08:06;13.90;;;9.53;;
11618;SDS011;5865;48.776;9.280;2023-01-24T03:10:33;14.50;;;9.50;;
11618;SDS011;5865;48.776;9.280;2023-01-24T03:13:01;14.03;;;9.17;;
11618;SDS011;5865;48.776;9.280;2023-01-24T03:15:46;12.70;;;8.93;;
11618;SDS011;5865;48.776;9.280;2023-01-24T03:18:31;13.47;;;9.30;;
11618;SDS011;5865;48.776;9.280;2023-01-24T03:21:16;12.70;;;8.77;;
11618;SDS011;5865;48.776;9.280;2023-01-24T03:24:00;12.73;;;9.67;;
11618;SDS011;5865;48.776;9.280;2023-01-24T03:26:45;13.30;;;9.27;;
11618;SDS011;5865;48.776;9.280;2023-01-24T03:29:29;12.83;;;8.67;;
11618;SDS011;5865;48.776;9.280;2023-01-24T03:32:15;13.23;;;8.83;;
11618;SDS011;5865;48.776;9.280;2023-01-24T03:34:59;12.90;;;8.80;;
11618;SDS011;5865;48.776;9.280;2023-01-24T03:37:29;11.40;;;8.13;;
11618;SDS011;5865;48.776;9.280;2023-01-24T03:40:17;12.43;;;8.53;;
11618;SDS011;5865;48.776;9.280;2023-01-24T03:42:46;13.10;;;9.13;;
11618;SDS011;5865;48.776;9.280;2023-01-24T03:45:15;12.77;;;9.03;;
11618;SDS011;5865;48.776;9.280;2023-01-24T03:47:46;12.33;;;8.63;;
11618;SDS011;5865;48.776;9.280;2023-01-24T03:50:22;13.23;;;8.80;;
11618;SDS011;5865;48.776;9.280;2023-01-24T03:53:07;11.20;;;7.80;;
11618;SDS011;5865;48.776;9.280;2023-01-24T03:55:34;12.47;;;8.47;;
11618;SDS011;5865;48.776;9.280;2023-01-24T03:58:02;12.10;;;8.50;;
11618;SDS011;5865;48.776;9.280;2023-01-24T04:00:30;13.00;;;9.23;;
11618;SDS011;5865;48.776;9.280;2023-01-24T04:03:02;11.80;;;8.67;;
11618;SDS011;5865;48.776;9.280;2023-01-24T04:05:31;12.43;;;8.93;;
11618;SDS011;5865;48.776;9.280;2023-01-24T04:07:59;13.83;;;8.37;;
11618;SDS011;5865;48.776;9.280;2023-01-24T04:10:27;11.73;;;8.47;;
11618;SDS011;5865;48.776;9.280;2023-01-24T04:12:54;13.97;;;8.77;;
11618;SDS011;5865;48.776;9.280;2023-01-24T04:15:23;12.23;;;8.53;;
11618;SDS011;5865;48.776;9.280;2023-01-24T04:18:03;12.43;;;8.47;;
11618;SDS011;5865;48.776;9.280;2023-01-24T04:20:33;12.67;;;8.60;;
11618;SDS011;5865;48.776;9.280;2023-01-24T04:23:04;12.70;;;8.80;;
11618;SDS011;5865;48.776;9.280;2023-01-24T04:25:33;12.47;;;8.93;;
11618;SDS011;5865;48.776;9.280;2023-01-24T04:28:01;16.77;;;9.77;;
11618;SDS011;5865;48.776;9.280;2023-01-24T04:30:31;11.90;;;8.63;;
11618;SDS011;5865;48.776;9.280;2023-01-24T04:32:59;11.70;;;8.03;;
11618;SDS011;5865;48.776;9.280;2023-01-24T04:35:28;11.97;;;8.93;;
11618;SDS011;5865;48.776;9.280;2023-01-24T04:37:58;14.33;;;9.03;;
11618;SDS011;5865;48.776;9.280;2023-01-24T04:40:34;13.07;;;8.60;;
11618;SDS011;5865;48.776;9.280;2023-01-24T04:43:02;13.37;;;8.83;;
11618;SDS011;5865;48.776;9.280;2023-01-24T04:45:30;13.97;;;9.53;;
11618;SDS011;5865;48.776;9.280;2023-01-24T04:47:59;11.77;;;8.60;;
11618;SDS011;5865;48.776;9.280;2023-01-24T04:50:25;14.73;;;9.93;;
11618;SDS011;5865;48.776;9.280;2023-01-24T04:52:54;15.00;;;9.30;;
11618;SDS011;5865;48.776;9.280;2023-01-24T04:55:22;13.20;;;9.13;;
11618;SDS011;5865;48.776;9.280;2023-01-24T04:57:50;15.73;;;9.50;;
11618;SDS011;5865;48.776;9.280;2023-01-24T05:00:17;13.77;;;9.60;;
11618;SDS011;5865;48.776;9.280;2023-01-24T05:02:45;14.57;;;10.07;;
11618;SDS011;5865;48.776;9.280;2023-01-24T05:05:14;14.23;;;9.47;;
11618;SDS011;5865;48.776;9.280;2023-01-24T05:07:41;15.23;;;9.43;;
11618;SDS011;5865;48.776;9.280;2023-01-24T05:10:15;14.83;;;9.50;;
11618;SDS011;5865;48.776;9.280;2023-01-24T05:12:46;14.57;;;10.20;;
11618;SDS011;5865;48.776;9.280;2023-01-24T05:15:17;14.00;;;8.93;;
11618;SDS011;5865;48.776;9.280;2023-01-24T05:17:47;15.53;;;9.67;;
11618;SDS011;5865;48.776;9.280;2023-01-24T05:20:18;15.33;;;9.60;;
11618;SDS011;5865;48.776;9.280;2023-01-24T05:22:45;14.40;;;9.60;;
11618;SDS011;5865;48.776;9.280;2023-01-24T05:25:16;15.00;;;9.73;;
11618;SDS011;5865;48.776;9.280;2023-01-24T05:27:43;16.37;;;10.00;;
11618;SDS011;5865;48.776;9.280;2023-01-24T05:32:41;15.90;;;10.50;;
11618;SDS011;5865;48.776;9.280;2023-01-24T05:35:08;14.50;;;9.27;;
11618;SDS011;5865;48.776;9.280;2023-01-24T05:37:35;14.23;;;9.50;;
11618;SDS011;5865;48.776;9.280;2023-01-24T05:40:03;16.57;;;9.70;;
11618;SDS011;5865;48.776;9.280;2023-01-24T05:42:33;15.60;;;10.03;;
11618;SDS011;5865;48.776;9.280;2023-01-24T05:45:00;14.57;;;9.83;;
11618;SDS011;5865;48.776;9.280;2023-01-24T05:47:27;16.20;;;10.13;;
11618;SDS011;5865;48.776;9.280;2023-01-24T05:49:54;16.40;;;10.67;;
11618;SDS011;5865;48.776;9.280;2023-01-24T05:52:21;16.00;;;9.60;;
11618;SDS011;5865;48.776;9.280;2023-01-24T05:54:50;14.27;;;9.80;;
11618;SDS011;5865;48.776;9.280;2023-01-24T05:57:27;15.40;;;9.97;;
11618;SDS011;5865;48.776;9.280;2023-01-24T06:00:14;14.30;;;9.67;;
11618;SDS011;5865;48.776;9.280;2023-01-24T06:03:00;14.87;;;9.83;;
11618;SDS011;5865;48.776;9.280;2023-01-24T06:05:28;16.50;;;10.47;;
11618;SDS011;5865;48.776;9.280;2023-01-24T06:07:55;15.07;;;9.57;;
11618;SDS011;5865;48.776;9.280;2023-01-24T06:13:41;16.17;;;10.20;;
11618;SDS011;5865;48.776;9.280;2023-01-24T06:20:12;16.43;;;11.13;;
11618;SDS011;5865;48.776;9.280;2023-01-24T06:23:05;14.90;;;10.60;;
11618;SDS011;5865;48.776;9.280;2023-01-24T06:25:56;15.83;;;10.33;;
11618;SDS011;5865;48.776;9.280;2023-01-24T06:28:57;15.87;;;10.13;;
11618;SDS011;5865;48.776;9.280;2023-01-24T06:31:53;16.90;;;11.00;;
11618;SDS011;5865;48.776;9.280;2023-01-24T06:38:06;17.67;;;10.47;;
11618;SDS011;5865;48.776;9.280;2023-01-24T06:41:26;16.40;;;10.40;;
11618;SDS011;5865;48.776;9.280;2023-01-24T06:44:36;15.53;;;10.17;;
11618;SDS011;5865;48.776;9.280;2023-01-24T06:47:25;15.37;;;10.30;;
11618;SDS011;5865;48.776;9.280;2023-01-24T06:50:18;16.87;;;10.37;;
11618;SDS011;5865;48.776;9.280;2023-01-24T07:19:10;14.83;;;9.83;;
11618;SDS011;5865;48.776;9.280;2023-01-24T07:22:15;14.80;;;10.00;;
11618;SDS011;5865;48.776;9.280;2023-01-24T07:24:58;15.37;;;9.70;;
11618;SDS011;5865;48.776;9.280;2023-01-24T07:27:42;15.50;;;9.70;;
11618;SDS011;5865;48.776;9.280;2023-01-24T07:30:30;16.23;;;10.00;;
11618;SDS011;5865;48.776;9.280;2023-01-24T07:33:22;18.43;;;9.97;;
11618;SDS011;5865;48.776;9.280;2023-01-24T07:39:26;16.33;;;10.03;;
11618;SDS011;5865;48.776;9.280;2023-01-24T07:41:58;15.67;;;10.23;;
11618;SDS011;5865;48.776;9.280;2023-01-24T07:44:34;14.43;;;9.73;;
11618;SDS011;5865;48.776;9.280;2023-01-24T07:47:18;13.40;;;8.93;;
11618;SDS011;5865;48.776;9.280;2023-01-24T07:50:06;13.50;;;8.80;;
11618;SDS011;5865;48.776;9.280;2023-01-24T07:53:02;13.47;;;8.70;;
11618;SDS011;5865;48.776;9.280;2023-01-24T07:55:45;14.53;;;9.47;;
11618;SDS011;5865;48.776;9.280;2023-01-24T07:58:37;13.80;;;9.30;;
11618;SDS011;5865;48.776;9.280;2023-01-24T08:01:15;12.27;;;8.37;;
11618;SDS011;5865;48.776;9.280;2023-01-24T08:03:56;14.37;;;9.03;;
11618;SDS011;5865;48.776;9.280;2023-01-24T08:06:43;13.60;;;8.80;;
11618;SDS011;5865;48.776;9.280;2023-01-24T08:09:27;11.87;;;7.77;;
11618;SDS011;5865;48.776;9.280;2023-01-24T08:12:08;12.60;;;8.67;;
11618;SDS011;5865;48.776;9.280;2023-01-24T08:14:37;11.53;;;8.33;;
11618;SDS011;5865;48.776;9.280;2023-01-24T08:17:05;12.43;;;8.30;;
11618;SDS011;5865;48.776;9.280;2023-01-24T08:19:33;14.00;;;8.20;;
11618;SDS011;5865;48.776;9.280;2023-01-24T08:22:06;11.87;;;7.97;;
11618;SDS011;5865;48.776;9.280;2023-01-24T08:24:39;11.10;;;7.87;;
11618;SDS011;5865;48.776;9.280;2023-01-24T08:30:16;12.50;;;8.00;;
11618;SDS011;5865;48.776;9.280;2023-01-24T08:32:43;13.17;;;8.03;;
11618;SDS011;5865;48.776;9.280;2023-01-24T08:35:18;11.20;;;7.93;;
11618;SDS011;5865;48.776;9.280;2023-01-24T08:38:02;11.53;;;7.53;;
11618;SDS011;5865;48.776;9.280;2023-01-24T08:40:50;10.30;;;7.80;;
11618;SDS011;5865;48.776;9.280;2023-01-24T08:43:31;11.97;;;7.57;;
11618;SDS011;5865;48.776;9.280;2023-01-24T08:46:06;10.50;;;7.60;;
11618;SDS011;5865;48.776;9.280;2023-01-24T08:48:51;10.80;;;7.57;;
11618;SDS011;5865;48.776;9.280;2023-01-24T08:51:35;12.30;;;7.73;;
11618;SDS011;5865;48.776;9.280;2023-01-24T08:57:11;11.20;;;7.87;;
11618;SDS011;5865;48.776;9.280;2023-01-24T09:02:56;13.57;;;8.10;;
11618;SDS011;5865;48.776;9.280;2023-01-24T09:05:40;11.27;;;7.53;;
11618;SDS011;5865;48.776;9.280;2023-01-24T09:08:14;11.17;;;7.50;;
11618;SDS011;5865;48.776;9.280;2023-01-24T09:10:58;9.47;;;7.13;;
11618;SDS011;5865;48.776;9.280;2023-01-24T09:13:31;13.93;;;8.87;;
11618;SDS011;5865;48.776;9.280;2023-01-24T09:16:14;12.30;;;7.63;;
11618;SDS011;5865;48.776;9.280;2023-01-24T09:18:48;10.50;;;7.50;;
11618;SDS011;5865;48.776;9.280;2023-01-24T09:21:20;10.93;;;8.03;;
11618;SDS011;5865;48.776;9.280;2023-01-24T09:23:52;12.23;;;7.40;;
11618;SDS011;5865;48.776;9.280;2023-01-24T09:26:20;10.77;;;8.13;;
11618;SDS011;5865;48.776;9.280;2023-01-24T09:29:01;11.90;;;7.47;;
11618;SDS011;5865;48.776;9.280;2023-01-24T09:31:43;9.60;;;7.17;;
11618;SDS011;5865;48.776;9.280;2023-01-24T09:34:14;10.47;;;7.57;;
11618;SDS011;5865;48.776;9.280;2023-01-24T09:36:41;10.70;;;7.57;;
11618;SDS011;5865;48.776;9.280;2023-01-24T09:39:12;10.17;;;7.33;;
11618;SDS011;5865;48.776;9.280;2023-01-24T09:41:43;10.87;;;7.60;;
11618;SDS011;5865;48.776;9.280;2023-01-24T09:44:14;9.10;;;6.70;;
11618;SDS011;5865;48.776;9.280;2023-01-24T09:46:49;11.13;;;7.20;;
11618;SDS011;5865;48.776;9.280;2023-01-24T09:49:33;10.80;;;7.70;;
11618;SDS011;5865;48.776;9.280;2023-01-24T09:52:02;10.50;;;7.73;;
11618;SDS011;5865;48.776;9.280;2023-01-24T09:54:37;9.00;;;6.93;;
11618;SDS011;5865;48.776;9.280;2023-01-24T09:57:17;11.43;;;6.97;;
11618;SDS011;5865;48.776;9.280;2023-01-24T09:59:51;10.27;;;7.10;;
11618;SDS011;5865;48.776;9.280;2023-01-24T10:02:21;9.97;;;6.87;;
11618;SDS011;5865;48.776;9.280;2023-01-24T10:04:52;10.70;;;6.97;;
11618;SDS011;5865;48.776;9.280;2023-01-24T10:07:42;8.27;;;6.43;;
11618;SDS011;5865;48.776;9.280;2023-01-24T10:10:33;9.87;;;6.53;;
11618;SDS011;5865;48.776;9.280;2023-01-24T10:13:08;9.90;;;6.90;;
11618;SDS011;5865;48.776;9.280;2023-01-24T10:15:40;10.47;;;7.30;;
11618;SDS011;5865;48.776;9.280;2023-01-24T10:21:04;9.33;;;6.77;;
11618;SDS011;5865;48.776;9.280;2023-01-24T10:23:51;9.30;;;6.80;;
11618;SDS011;5865;48.776;9.280;2023-01-24T10:26:21;9.77;;;7.03;;
11618;SDS011;5865;48.776;9.280;2023-01-24T10:28:54;10.00;;;6.90;;
11618;SDS011;5865;48.776;9.280;2023-01-24T10:31:25;9.67;;;6.77;;
11618;SDS011;5865;48.776;9.280;2023-01-24T10:33:56;9.70;;;7.00;;
11618;SDS011;5865;48.776;9.280;2023-01-24T10:36:28;10.97;;;7.60;;
11618;SDS011;5865;48.776;9.280;2023-01-24T10:39:04;10.03;;;7.73;;
11618;SDS011;5865;48.776;9.280;2023-01-24T10:41:32;8.40;;;6.60;;
11618;SDS011;5865;48.776;9.280;2023-01-24T10:44:02;9.70;;;6.60;;
11618;SDS011;5865;48.776;9.280;2023-01-24T10:46:45;9.23;;;6.43;;
11618;SDS011;5865;48.776;9.280;2023-01-24T10:49:27;9.10;;;6.37;;
11618;SDS011;5865;48.776;9.280;2023-01-24T10:52:12;8.43;;;6.20;;
11618;SDS011;5865;48.776;9.280;2023-01-24T10:54:44;10.27;;;6.63;;
11618;SDS011;5865;48.776;9.280;2023-01-24T10:57:26;7.63;;;5.87;;
11618;SDS011;5865;48.776;9.280;2023-01-24T11:03:00;8.73;;;5.90;;
11618;SDS011;5865;48.776;9.280;2023-01-24T11:05:43;9.67;;;6.40;;
11618;SDS011;5865;48.776;9.280;2023-01-24T11:10:58;9.87;;;6.70;;
11618;SDS011;5865;48.776;9.280;2023-01-24T11:13:40;8.00;;;5.73;;
11618;SDS011;5865;48.776;9.280;2023-01-24T11:16:22;8.00;;;5.67;;
11618;SDS011;5865;48.776;9.280;2023-01-24T11:18:51;8.40;;;6.20;;
11618;SDS011;5865;48.776;9.280;2023-01-24T11:21:35;8.60;;;5.67;;
11618;SDS011;5865;48.776;9.280;2023-01-24T11:24:31;8.03;;;5.60;;
11618;SDS011;5865;48.776;9.280;2023-01-24T12:18:16;10.53;;;5.70;;
11618;SDS011;5865;48.776;9.280;2023-01-24T12:21:03;10.77;;;6.10;;
11618;SDS011;5865;48.776;9.280;2023-01-24T12:23:35;7.63;;;5.13;;
11618;SDS011;5865;48.776;9.280;2023-01-24T12:40:26;8.50;;;6.10;;
11618;SDS011;5865;48.776;9.280;2023-01-24T12:43:03;9.83;;;6.10;;
11618;SDS011;5865;48.776;9.280;2023-01-24T12:45:51;9.13;;;6.30;;
11618;SDS011;5865;48.776;9.280;2023-01-24T12:48:25;9.43;;;7.00;;
11618;SDS011;5865;48.776;9.280;2023-01-24T12:51:02;9.37;;;6.90;;
11618;SDS011;5865;48.776;9.280;2023-01-24T12:53:41;10.37;;;7.27;;
11618;SDS011;5865;48.776;9.280;2023-01-24T12:59:14;10.33;;;7.20;;
11618;SDS011;5865;48.776;9.280;2023-01-24T13:01:58;9.73;;;7.17;;
11618;SDS011;5865;48.776;9.280;2023-01-24T13:04:35;9.10;;;6.90;;
11618;SDS011;5865;48.776;9.280;2023-01-24T13:07:08;11.63;;;7.07;;
11618;SDS011;5865;48.776;9.280;2023-01-24T13:09:59;9.53;;;6.60;;
11618;SDS011;5865;48.776;9.280;2023-01-24T13:12:29;12.77;;;6.90;;
11618;SDS011;5865;48.776;9.280;2023-01-24T13:15:09;12.63;;;6.87;;
11618;SDS011;5865;48.776;9.280;2023-01-24T13:17:55;10.03;;;6.90;;
11618;SDS011;5865;48.776;9.280;2023-01-24T13:20:33;8.70;;;7.03;;
11618;SDS011;5865;48.776;9.280;2023-01-24T13:23:06;10.87;;;7.30;;
11618;SDS011;5865;48.776;9.280;2023-01-24T13:28:43;10.43;;;7.13;;
11618;SDS011;5865;48.776;9.280;2023-01-24T13:31:22;11.00;;;7.53;;
11618;SDS011;5865;48.776;9.280;2023-01-24T13:33:55;10.17;;;7.27;;
11618;SDS011;5865;48.776;9.280;2023-01-24T13:36:32;9.47;;;7.03;;
11618;SDS011;5865;48.776;9.280;2023-01-24T13:39:04;12.07;;;7.33;;
11618;SDS011;5865;48.776;9.280;2023-01-24T13:41:33;11.30;;;7.87;;
11618;SDS011;5865;48.776;9.280;2023-01-24T13:44:24;12.50;;;8.20;;
11618;SDS011;5865;48.776;9.280;2023-01-24T13:50:13;11.90;;;7.83;;
11618;SDS011;5865;48.776;9.280;2023-01-24T13:52:49;10.37;;;7.37;;
11618;SDS011;5865;48.776;9.280;2023-01-24T13:58:35;9.70;;;6.63;;
11618;SDS011;5865;48.776;9.280;2023-01-24T14:01:16;10.20;;;7.60;;
11618;SDS011;5865;48.776;9.280;2023-01-24T14:03:51;10.97;;;6.93;;
11618;SDS011;5865;48.776;9.280;2023-01-24T14:09:21;10.83;;;7.10;;
11618;SDS011;5865;48.776;9.280;2023-01-24T14:11:56;11.50;;;7.63;;
11618;SDS011;5865;48.776;9.280;2023-01-24T14:14:32;11.53;;;7.43;;
11618;SDS011;5865;48.776;9.280;2023-01-24T14:17:04;11.60;;;7.33;;
11618;SDS011;5865;48.776;9.280;2023-01-24T14:19:35;9.23;;;6.90;;
11618;SDS011;5865;48.776;9.280;2023-01-24T14:22:19;9.47;;;7.23;;
11618;SDS011;5865;48.776;9.280;2023-01-24T14:24:57;11.87;;;7.40;;
11618;SDS011;5865;48.776;9.280;2023-01-24T14:27:33;11.23;;;7.03;;
11618;SDS011;5865;48.776;9.280;2023-01-24T14:30:15;10.03;;;7.07;;
11618;SDS011;5865;48.776;9.280;2023-01-24T14:32:49;12.20;;;7.77;;
11618;SDS011;5865;48.776;9.280;2023-01-24T14:35:19;9.53;;;7.27;;
11618;SDS011;5865;48.776;9.280;2023-01-24T14:37:49;10.90;;;7.70;;
11618;SDS011;5865;48.776;9.280;2023-01-24T14:40:24;10.13;;;7.23;;
11618;SDS011;5865;48.776;9.280;2023-01-24T14:42:57;10.70;;;7.47;;
11618;SDS011;5865;48.776;9.280;2023-01-24T14:45:28;11.50;;;7.93;;
11618;SDS011;5865;48.776;9.280;2023-01-24T14:47:58;10.90;;;7.83;;
11618;SDS011;5865;48.776;9.280;2023-01-24T14:50:27;14.37;;;8.33;;
11618;SDS011;5865;48.776;9.280;2023-01-24T14:52:56;12.70;;;7.90;;
11618;SDS011;5865;48.776;9.280;2023-01-24T14:55:30;12.43;;;7.90;;
11618;SDS011;5865;48.776;9.280;2023-01-24T14:58:13;12.13;;;8.20;;
11618;SDS011;5865;48.776;9.280;2023-01-24T15:00:43;13.20;;;8.30;;
11618;SDS011;5865;48.776;9.280;2023-01-24T15:03:14;12.37;;;7.83;;
11618;SDS011;5865;48.776;9.280;2023-01-24T15:05:58;12.37;;;7.93;;
11618;SDS011;5865;48.776;9.280;2023-01-24T15:08:27;11.97;;;8.03;;
11618;SDS011;5865;48.776;9.280;2023-01-24T15:10:59;11.90;;;8.20;;
11618;SDS011;5865;48.776;9.280;2023-01-24T15:13:31;12.20;;;7.67;;
11618;SDS011;5865;48.776;9.280;2023-01-24T15:16:00;10.93;;;7.83;;
11618;SDS011;5865;48.776;9.280;2023-01-24T15:18:41;10.60;;;7.60;;
11618;SDS011;5865;48.776;9.280;2023-01-24T15:21:23;13.93;;;8.57;;
11618;SDS011;5865;48.776;9.280;2023-01-24T15:23:57;11.53;;;8.43;;
11618;SDS011;5865;48.776;9.280;2023-01-24T15:26:35;11.03;;;7.57;;
11618;SDS011;5865;48.776;9.280;2023-01-24T15:32:21;13.17;;;8.10;;
11618;SDS011;5865;48.776;9.280;2023-01-24T15:37:46;13.47;;;8.77;;
11618;SDS011;5865;48.776;9.280;2023-01-24T15:40:53;12.80;;;9.10;;
11618;SDS011;5865;48.776;9.280;2023-01-24T15:43:26;11.73;;;8.70;;
11618;SDS011;5865;48.776;9.280;2023-01-24T15:46:29;12.93;;;7.93;;
11618;SDS011;5865;48.776;9.280;2023-01-24T15:49:23;10.43;;;7.57;;
11618;SDS011;5865;48.776;9.280;2023-01-24T15:52:03;13.50;;;8.27;;
11618;SDS011;5865;48.776;9.280;2023-01-24T15:54:47;12.60;;;8.20;;
11618;SDS011;5865;48.776;9.280;2023-01-24T15:57:19;14.13;;;9.27;;
11618;SDS011;5865;48.776;9.280;2023-01-24T15:59:51;11.70;;;8.50;;
11618;SDS011;5865;48.776;9.280;2023-01-24T16:02:20;14.53;;;9.40;;
11618;SDS011;5865;48.776;9.280;2023-01-24T16:04:47;11.37;;;8.40;;
11618;SDS011;5865;48.776;9.280;2023-01-24T16:07:15;13.50;;;9.63;;
11618;SDS011;5865;48.776;9.280;2023-01-24T16:09:44;12.17;;;9.00;;
11618;SDS011;5865;48.776;9.280;2023-01-24T16:12:13;13.57;;;8.60;;
11618;SDS011;5865;48.776;9.280;2023-01-24T16:14:44;12.67;;;8.53;;
11618;SDS011;5865;48.776;9.280;2023-01-24T16:17:15;13.13;;;9.57;;
11618;SDS011;5865;48.776;9.280;2023-01-24T16:19:45;11.57;;;8.90;;
11618;SDS011;5865;48.776;9.280;2023-01-24T16:22:12;14.93;;;9.30;;
11618;SDS011;5865;48.776;9.280;2023-01-24T16:24:39;16.70;;;10.57;;
11618;SDS011;5865;48.776;9.280;2023-01-24T16:27:08;17.07;;;10.90;;
11618;SDS011;5865;48.776;9.280;2023-01-24T16:29:36;16.63;;;10.67;;
11618;SDS011;5865;48.776;9.280;2023-01-24T16:32:07;18.47;;;11.47;;
11618;SDS011;5865;48.776;9.280;2023-01-24T16:34:44;16.63;;;10.90;;
11618;SDS011;5865;48.776;9.280;2023-01-24T16:37:11;15.17;;;10.70;;
11618;SDS011;5865;48.776;9.280;2023-01-24T16:39:39;17.73;;;11.83;;
11618;SDS011;5865;48.776;9.280;2023-01-24T16:42:07;18.17;;;11.83;;
11618;SDS011;5865;48.776;9.280;2023-01-24T16:44:39;17.00;;;11.07;;
11618;SDS011;5865;48.776;9.280;2023-01-24T16:47:07;15.80;;;10.80;;
11618;SDS011;5865;48.776;9.280;2023-01-24T16:49:37;18.00;;;10.63;;
11618;SDS011;5865;48.776;9.280;2023-01-24T16:52:05;15.33;;;10.63;;
11618;SDS011;5865;48.776;9.280;2023-01-24T16:54:32;15.23;;;10.03;;
11618;SDS011;5865;48.776;9.280;2023-01-24T16:56:59;16.00;;;10.53;;
11618;SDS011;5865;48.776;9.280;2023-01-24T16:59:26;16.07;;;10.70;;
11618;SDS011;5865;48.776;9.280;2023-01-24T17:01:54;19.23;;;10.83;;
11618;SDS011;5865;48.776;9.280;2023-01-24T17:04:21;16.53;;;10.53;;
11618;SDS011;5865;48.776;9.280;2023-01-24T17:06:49;21.83;;;13.03;;
11618;SDS011;5865;48.776;9.280;2023-01-24T17:09:16;22.07;;;14.57;;
11618;SDS011;5865;48.776;9.280;2023-01-24T17:11:43;19.27;;;12.43;;
11618;SDS011;5865;48.776;9.280;2023-01-24T17:14:10;18.67;;;12.80;;
11618;SDS011;5865;48.776;9.280;2023-01-24T17:16:38;19.80;;;11.63;;
11618;SDS011;5865;48.776;9.280;2023-01-24T17:19:05;18.53;;;12.10;;
11618;SDS011;5865;48.776;9.280;2023-01-24T17:21:32;16.60;;;11.03;;
11618;SDS011;5865;48.776;9.280;2023-01-24T17:24:00;19.03;;;11.53;;
11618;SDS011;5865;48.776;9.280;2023-01-24T17:26:27;18.23;;;12.10;;
11618;SDS011;5865;48.776;9.280;2023-01-24T17:28:54;18.67;;;11.37;;
11618;SDS011;5865;48.776;9.280;2023-01-24T17:31:22;18.47;;;11.73;;
11618;SDS011;5865;48.776;9.280;2023-01-24T17:33:51;19.27;;;12.13;;
11618;SDS011;5865;48.776;9.280;2023-01-24T17:36:19;22.47;;;13.23;;
11618;SDS011;5865;48.776;9.280;2023-01-24T17:38:47;20.70;;;12.20;;
11618;SDS011;5865;48.776;9.280;2023-01-24T17:41:16;18.43;;;12.03;;
11618;SDS011;5865;48.776;9.280;2023-01-24T17:43:45;21.60;;;13.00;;
11618;SDS011;5865;48.776;9.280;2023-01-24T17:46:12;20.63;;;13.70;;
11618;SDS011;5865;48.776;9.280;2023-01-24T17:48:40;21.70;;;14.03;;
11618;SDS011;5865;48.776;9.280;2023-01-24T17:51:07;21.03;;;13.47;;
11618;SDS011;5865;48.776;9.280;2023-01-24T17:53:37;21.03;;;13.23;;
11618;SDS011;5865;48.776;9.280;2023-01-24T17:56:05;19.03;;;12.23;;
11618;SDS011;5865;48.776;9.280;2023-01-24T17:58:37;19.53;;;12.60;;
11618;SDS011;5865;48.776;9.280;2023-01-24T18:01:04;24.23;;;13.23;;
11618;SDS011;5865;48.776;9.280;2023-01-24T18:03:31;22.37;;;13.40;;
11618;SDS011;5865;48.776;9.280;2023-01-24T18:06:00;20.67;;;12.83;;